createdAt,value
2018-04-19T00:01:10.057Z,19.8
2018-04-19T00:11:10.900Z,21.3
2018-04-19T00:21:10.821Z,19.0
2018-04-19T00:31:10.613Z,16.5
2018-04-19T00:41:10.458Z,19.3
2018-04-19T00:51:10.299Z,16.3
2018-04-19T01:01:10.169Z,21.9
2018-04-19T01:11:10.990Z,17.9
2018-04-19T01:21:10.874Z,18.6
2018-04-19T01:31:10.784Z,24.3
2018-04-19T01:41:10.812Z,23.1
2018-04-19T01:51:10.647Z,28.6
2018-04-19T02:01:10.493Z,24.9
2018-04-19T02:11:10.346Z,27.1
2018-04-19T02:21:10.305Z,32.8
2018-04-19T02:31:10.174Z,36.0
2018-04-19T02:41:10.990Z,37.5
2018-04-19T02:51:10.852Z,35.2
2018-04-19T03:01:10.718Z,37.7
2018-04-19T03:11:10.571Z,36.8
2018-04-19T03:21:10.523Z,34.5
2018-04-19T03:31:10.453Z,32.7
2018-04-19T03:41:10.344Z,36.4
2018-04-19T03:51:10.204Z,36.2
2018-04-19T04:01:11.341Z,35.7
2018-04-19T04:11:10.257Z,37.0
2018-04-19T04:21:10.188Z,39.8
2018-04-19T04:31:10.876Z,37.4
2018-04-19T04:41:10.750Z,40.3
2018-04-19T04:51:10.571Z,41.4
2018-04-19T05:01:10.434Z,41.8
2018-04-19T05:11:10.213Z,46.2
2018-04-19T05:21:10.170Z,44.7
2018-04-19T05:31:11.048Z,40.2
2018-04-19T05:41:11.056Z,44.1
2018-04-19T05:51:10.858Z,40.5
2018-04-19T06:01:10.675Z,42.8
2018-04-19T06:11:10.479Z,41.3
2018-04-19T06:21:10.445Z,42.8
2018-04-19T06:31:10.215Z,40.8
2018-04-19T06:41:11.058Z,39.9
2018-04-19T06:51:10.911Z,38.0
2018-04-19T07:01:10.750Z,37.5
2018-04-19T07:11:10.615Z,36.1
2018-04-19T07:21:10.551Z,40.6
2018-04-19T07:31:10.387Z,35.5
2018-04-19T07:41:10.252Z,35.0
2018-04-19T07:51:11.148Z,33.9
2018-04-19T08:01:11.072Z,33.3
2018-04-19T08:11:10.956Z,31.0
2018-04-19T08:21:10.882Z,30.0
2018-04-19T08:31:10.843Z,30.6
2018-04-19T08:41:10.690Z,28.9
2018-04-19T08:51:10.541Z,22.9
2018-04-19T09:01:10.417Z,17.9
2018-04-19T09:11:10.283Z,15.7
2018-04-19T09:21:10.272Z,15.1
2018-04-19T09:31:11.182Z,13.3
2018-04-19T09:41:10.056Z,9.5
2018-04-19T09:51:09.990Z,11.1
2018-04-19T10:01:10.863Z,6.4
2018-04-19T10:11:10.798Z,5.9
2018-04-19T10:21:10.940Z,8.7
2018-04-19T10:31:10.884Z,6.0
2018-04-19T10:41:10.855Z,5.9
2018-04-19T10:51:10.827Z,4.6
2018-04-19T11:01:09.761Z,9.9
2018-04-19T11:11:10.671Z,6.9
2018-04-19T11:21:10.719Z,5.7
2018-04-19T11:31:10.633Z,7.1
2018-04-19T11:41:10.526Z,5.7
2018-04-19T11:51:10.378Z,4.7
2018-04-19T12:01:10.319Z,4.2
2018-04-19T12:11:10.291Z,3.9
2018-04-19T12:21:09.307Z,4.8
2018-04-19T12:31:11.238Z,4.8
2018-04-19T12:41:11.140Z,5.4
2018-04-19T12:51:10.982Z,4.3
2018-04-19T13:01:10.891Z,4.0
2018-04-19T13:11:09.816Z,3.6
2018-04-19T13:21:09.825Z,4.3
2018-04-19T13:31:10.727Z,4.8
2018-04-19T13:41:09.630Z,4.3
2018-04-19T13:51:10.617Z,3.8
2018-04-19T14:01:10.574Z,4.6
2018-04-19T14:11:10.464Z,4.3
2018-04-19T14:21:10.526Z,3.2
2018-04-19T14:31:10.469Z,4.3
2018-04-19T14:41:10.409Z,3.5
2018-04-19T14:51:11.322Z,3.2
2018-04-19T15:01:11.271Z,3.9
2018-04-19T15:11:11.206Z,3.3
2018-04-19T15:21:11.262Z,5.4
2018-04-19T15:31:10.169Z,8.3
2018-04-19T15:41:11.136Z,3.6
2018-04-19T15:51:11.110Z,4.3
2018-04-19T16:01:10.990Z,3.8
2018-04-19T16:11:10.955Z,4.8
2018-04-19T16:21:11.030Z,4.2
2018-04-19T16:31:10.953Z,5.5
2018-04-19T16:41:10.971Z,4.3
2018-04-19T16:51:09.931Z,4.5
2018-04-19T17:01:09.875Z,4.4
2018-04-19T17:11:09.844Z,5.2
2018-04-19T17:21:09.906Z,4.8
2018-04-19T17:31:10.948Z,3.5
2018-04-19T17:41:10.857Z,3.7
2018-04-19T17:51:10.814Z,4.0
2018-04-19T18:01:10.727Z,3.6
2018-04-19T18:11:10.848Z,5.4
2018-04-19T18:21:10.954Z,4.6
2018-04-19T18:31:10.778Z,6.6
2018-04-19T18:41:10.899Z,5.6
2018-04-19T18:51:10.895Z,8.6
2018-04-19T19:01:10.813Z,7.3
2018-04-19T19:11:10.731Z,8.6
2018-04-19T19:21:10.980Z,8.4
2018-04-19T19:31:10.996Z,7.7
2018-04-19T19:41:10.965Z,9.5
2018-04-19T19:51:10.919Z,7.4
2018-04-19T20:01:10.882Z,6.8
2018-04-19T20:11:10.958Z,8.4
2018-04-19T20:21:11.029Z,7.3
2018-04-19T20:31:10.934Z,7.3
2018-04-19T20:41:10.791Z,9.5
2018-04-19T20:51:10.542Z,10.2
2018-04-19T21:01:11.402Z,7.3
2018-04-19T21:11:11.265Z,9.0
2018-04-19T21:21:11.279Z,7.9
2018-04-19T21:31:11.209Z,6.3
2018-04-19T21:41:11.083Z,9.4
2018-04-19T21:51:10.945Z,6.9
2018-04-19T22:01:10.790Z,6.4
2018-04-19T22:11:10.649Z,5.9
2018-04-19T22:21:10.637Z,8.9
2018-04-19T22:31:10.498Z,6.0
2018-04-19T22:41:11.348Z,6.8
2018-04-19T22:51:11.187Z,5.8
2018-04-19T23:01:11.026Z,9.9
2018-04-19T23:11:10.864Z,6.3
2018-04-19T23:21:10.772Z,5.0
2018-04-19T23:31:10.659Z,5.7
2018-04-19T23:41:10.600Z,6.2
2018-04-19T23:51:11.559Z,6.8
